Time,TemperatureF,DewpointF,PressureIn,WindDirection,WindDirectionDegrees,WindSpeedMPH,WindSpeedGustMPH,Humidity,HourlyPrecipIn,Conditions,Clouds,dailyrainin,SolarRadiationWatts/m^2,SoftwareType,DateUTC
2013-02-26 00:01:00,33.0,31.0,-100.00,West,268,4.0,26.0,95,0.01,,,0.21,0.800000,,2013-02-26 09:01:00,
2013-02-26 00:11:00,33.0,31.0,-100.00,West,268,4.0,26.0,95,0.01,,,0.21,0.800000,,2013-02-26 09:11:00,
2013-02-26 00:21:00,33.0,31.0,-100.00,West,268,4.0,26.0,95,0.01,,,0.21,0.800000,,2013-02-26 09:21:00,
2013-02-26 00:52:00,35.0,29.0,-100.00,NNW,347,9.0,23.0,81,0.00,,,0.21,0.800000,,2013-02-26 09:52:00,
2013-02-26 01:01:00,35.0,29.0,-100.00,NNW,347,9.0,23.0,81,0.00,,,0.21,0.800000,,2013-02-26 10:01:00,
2013-02-26 01:11:00,35.0,29.0,-100.00,NNW,347,9.0,23.0,81,0.00,,,0.21,0.800000,,2013-02-26 10:11:00,
2013-02-26 01:21:00,35.0,29.0,-100.00,NNW,347,9.0,23.0,81,0.00,,,0.21,0.800000,,2013-02-26 10:21:00,
2013-02-26 01:52:00,35.0,28.0,-100.00,North,8,14.0,26.0,74,0.01,,,0.22,0.800000,,2013-02-26 10:52:00,
2013-02-26 02:01:00,35.0,28.0,-100.00,North,8,14.0,26.0,74,0.01,,,0.22,0.800000,,2013-02-26 11:01:00,
2013-02-26 02:11:00,35.0,28.0,-100.00,North,8,14.0,26.0,74,0.01,,,0.22,0.800000,,2013-02-26 11:11:00,
2013-02-26 02:21:00,35.0,28.0,-100.00,North,8,14.0,26.0,74,0.01,,,0.22,0.800000,,2013-02-26 11:21:00,
2013-02-26 02:52:00,36.0,27.0,-100.00,NNE,21,11.0,22.0,70,0.00,,,0.22,0.800000,,2013-02-26 11:52:00,
2013-02-26 03:01:00,36.0,27.0,-100.00,NNE,21,11.0,22.0,70,0.00,,,0.22,0.800000,,2013-02-26 12:01:00,
2013-02-26 03:11:00,36.0,27.0,-100.00,NNE,21,11.0,22.0,70,0.00,,,0.22,0.800000,,2013-02-26 12:11:00,
2013-02-26 03:22:00,36.0,27.0,-100.00,NNE,21,11.0,22.0,70,0.00,,,0.22,0.800000,,2013-02-26 12:22:00,
2013-02-26 03:53:00,36.0,26.0,-100.00,NNE,17,13.0,24.0,65,0.00,,,0.22,0.800000,,2013-02-26 12:53:00,
2013-02-26 04:01:00,36.0,26.0,-100.00,NNE,17,13.0,24.0,65,0.00,,,0.22,0.800000,,2013-02-26 13:01:00,
2013-02-26 04:11:00,36.0,26.0,-100.00,NNE,17,13.0,24.0,65,0.00,,,0.22,0.800000,,2013-02-26 13:11:00,
2013-02-26 04:21:00,36.0,26.0,-100.00,NNE,17,13.0,24.0,65,0.00,,,0.22,0.800000,,2013-02-26 13:21:00,
2013-02-26 04:52:00,36.0,26.0,-100.00,NNE,12,16.0,23.0,66,0.00,,,0.22,0.800000,,2013-02-26 13:52:00,
2013-02-26 05:01:00,36.0,26.0,-100.00,NNE,12,16.0,23.0,66,0.00,,,0.22,0.800000,,2013-02-26 14:01:00,
2013-02-26 05:11:00,36.0,26.0,-100.00,NNE,12,16.0,23.0,66,0.00,,,0.22,0.800000,,2013-02-26 14:11:00,
2013-02-26 05:21:00,36.0,26.0,-100.00,NNE,12,16.0,23.0,66,0.00,,,0.22,0.800000,,2013-02-26 14:21:00,
2013-02-26 05:52:00,36.0,25.0,-100.00,NNE,18,14.0,25.0,64,0.00,,,0.22,0.800000,,2013-02-26 14:52:00,
2013-02-26 06:02:00,36.0,25.0,-100.00,NNE,18,14.0,25.0,64,0.00,,,0.22,0.800000,,2013-02-26 15:02:00,
2013-02-26 06:11:00,36.0,25.0,-100.00,NNE,18,14.0,25.0,64,0.00,,,0.22,0.800000,,2013-02-26 15:11:00,
2013-02-26 06:21:00,36.0,25.0,-100.00,NNE,18,14.0,25.0,64,0.00,,,0.22,0.800000,,2013-02-26 15:21:00,
2013-02-26 06:52:00,36.0,25.0,-100.00,North,5,16.0,27.0,64,0.00,,,0.22,0.800000,,2013-02-26 15:52:00,
2013-02-26 07:01:00,36.0,25.0,-100.00,North,5,16.0,27.0,64,0.00,,,0.22,0.800000,,2013-02-26 16:01:00,
2013-02-26 07:11:00,36.0,25.0,-100.00,North,5,16.0,27.0,64,0.00,,,0.22,0.800000,,2013-02-26 16:11:00,
2013-02-26 07:22:00,36.0,25.0,-100.00,North,5,16.0,27.0,64,0.00,,,0.22,0.800000,,2013-02-26 16:22:00,
2013-02-26 07:52:00,36.0,24.0,-100.00,North,11,15.0,25.0,59,0.00,,,0.22,0.800000,,2013-02-26 16:52:00,
2013-02-26 08:01:00,36.0,24.0,-100.00,North,11,15.0,25.0,59,0.00,,,0.22,0.800000,,2013-02-26 17:01:00,
2013-02-26 08:11:00,36.0,24.0,-100.00,North,11,15.0,25.0,59,0.00,,,0.22,0.800000,,2013-02-26 17:11:00,
2013-02-26 08:21:00,36.0,24.0,-100.00,North,11,15.0,25.0,59,0.00,,,0.22,0.800000,,2013-02-26 17:21:00,
2013-02-26 08:52:00,37.0,24.0,-100.00,North,9,14.0,24.0,59,0.00,,,0.22,3.300000,,2013-02-26 17:52:00,
2013-02-26 09:01:00,37.0,24.0,-100.00,North,9,14.0,24.0,59,0.00,,,0.22,3.300000,,2013-02-26 18:01:00,
2013-02-26 09:12:00,37.0,24.0,-100.00,North,9,14.0,24.0,59,0.00,,,0.22,3.300000,,2013-02-26 18:12:00,
2013-02-26 09:21:00,37.0,24.0,-100.00,North,9,14.0,24.0,59,0.00,,,0.22,3.300000,,2013-02-26 18:21:00,
2013-02-26 09:52:00,37.0,25.0,-100.00,North,6,15.0,21.0,61,0.00,,,0.22,15.800000,,2013-02-26 18:52:00,
2013-02-26 10:01:00,37.0,25.0,-100.00,North,6,15.0,21.0,61,0.00,,,0.22,15.800000,,2013-02-26 19:01:00,
2013-02-26 10:11:00,37.0,25.0,-100.00,North,6,15.0,21.0,61,0.00,,,0.22,15.800000,,2013-02-26 19:11:00,
2013-02-26 10:21:00,37.0,25.0,-100.00,North,6,15.0,21.0,61,0.00,,,0.22,15.800000,,2013-02-26 19:21:00,
2013-02-26 10:52:00,37.0,25.0,-100.00,NNW,345,14.0,33.0,62,0.00,,,0.21,64.300003,,2013-02-26 19:52:00,
2013-02-26 11:01:00,37.0,25.0,-100.00,NNW,345,14.0,33.0,62,0.00,,,0.21,64.300003,,2013-02-26 20:01:00,
2013-02-26 11:11:00,37.0,25.0,-100.00,NNW,345,14.0,33.0,62,0.00,,,0.21,64.300003,,2013-02-26 20:11:00,
2013-02-26 11:21:00,37.0,25.0,-100.00,NNW,345,14.0,33.0,62,0.00,,,0.21,64.300003,,2013-02-26 20:21:00,
2013-02-26 12:51:00,38.0,25.0,-100.00,North,357,11.0,20.0,60,-99.99,,,0.17,65.400002,,2013-02-26 21:51:00,
2013-02-26 13:01:00,38.0,25.0,-100.00,North,357,11.0,20.0,60,-99.99,,,0.17,65.400002,,2013-02-26 22:01:00,
2013-02-26 13:11:00,38.0,25.0,-100.00,North,357,11.0,20.0,60,-99.99,,,0.17,65.400002,,2013-02-26 22:11:00,
2013-02-26 13:21:00,38.0,25.0,-100.00,North,357,11.0,20.0,60,-99.99,,,0.17,65.400002,,2013-02-26 22:21:00,
2013-02-26 13:52:00,37.0,27.0,-100.00,North,2,15.0,24.0,66,0.00,,,0.15,115.099998,,2013-02-26 22:52:00,
2013-02-26 14:01:00,37.0,27.0,-100.00,North,2,15.0,24.0,66,0.00,,,0.15,115.099998,,2013-02-26 23:01:00,
2013-02-26 14:11:00,37.0,27.0,-100.00,North,2,15.0,24.0,66,0.00,,,0.15,115.099998,,2013-02-26 23:11:00,
2013-02-26 14:21:00,37.0,27.0,-100.00,North,2,15.0,24.0,66,0.00,,,0.15,115.099998,,2013-02-26 23:21:00,
2013-02-26 14:52:00,38.0,27.0,-100.00,NE,38,9.0,31.0,66,0.00,,,0.12,105.699997,,2013-02-26 23:52:00,
2013-02-26 15:01:00,38.0,27.0,-100.00,NE,38,9.0,31.0,66,0.00,,,0.12,105.699997,,2013-02-27 00:01:00,
2013-02-26 15:11:00,38.0,27.0,-100.00,NE,38,9.0,31.0,66,0.00,,,0.12,105.699997,,2013-02-27 00:11:00,
2013-02-26 15:21:00,38.0,27.0,-100.00,NE,38,9.0,31.0,66,0.00,,,0.12,105.699997,,2013-02-27 00:21:00,
2013-02-26 15:52:00,35.0,30.0,-100.00,NNE,28,10.0,23.0,82,0.00,,,0.08,106.300003,,2013-02-27 00:52:00,
2013-02-26 16:01:00,35.0,30.0,-100.00,NNE,28,10.0,23.0,82,0.00,,,0.08,106.300003,,2013-02-27 01:01:00,
2013-02-26 16:11:00,35.0,30.0,-100.00,NNE,28,10.0,23.0,82,0.00,,,0.08,106.300003,,2013-02-27 01:11:00,
2013-02-26 16:21:00,35.0,30.0,-100.00,NNE,28,10.0,23.0,82,0.00,,,0.08,106.300003,,2013-02-27 01:21:00,
2013-02-26 16:52:00,35.0,30.0,-100.00,NE,38,6.0,18.0,79,0.00,,,0.05,67.500000,,2013-02-27 01:52:00,
2013-02-26 17:01:00,35.0,30.0,-100.00,NE,38,6.0,18.0,79,0.00,,,0.05,67.500000,,2013-02-27 02:01:00,
2013-02-26 17:13:00,35.0,30.0,-100.00,NE,38,6.0,18.0,79,0.00,,,0.05,67.500000,,2013-02-27 02:13:00,
2013-02-26 17:22:00,35.0,30.0,-100.00,NE,38,6.0,18.0,79,0.00,,,0.05,67.500000,,2013-02-27 02:22:00,
2013-02-26 17:52:00,33.0,32.0,-100.00,NNW,331,9.0,18.0,95,0.00,,,0.03,24.700001,,2013-02-27 02:52:00,
2013-02-26 18:01:00,33.0,32.0,-100.00,NNW,331,9.0,18.0,95,0.00,,,0.03,24.700001,,2013-02-27 03:01:00,
2013-02-26 18:11:00,33.0,32.0,-100.00,NNW,331,9.0,18.0,95,0.00,,,0.03,24.700001,,2013-02-27 03:11:00,
2013-02-26 18:21:00,33.0,32.0,-100.00,NNW,331,9.0,18.0,95,0.00,,,0.03,24.700001,,2013-02-27 03:21:00,
2013-02-26 18:52:00,33.0,32.0,-100.00,NNW,337,12.0,16.0,98,0.01,,,0.03,6.900000,,2013-02-27 03:52:00,
2013-02-26 19:01:00,33.0,32.0,-100.00,NNW,337,12.0,16.0,98,0.01,,,0.03,6.900000,,2013-02-27 04:01:00,
2013-02-26 19:11:00,33.0,32.0,-100.00,NNW,337,12.0,16.0,98,0.01,,,0.03,6.900000,,2013-02-27 04:11:00,
2013-02-26 19:21:00,33.0,32.0,-100.00,NNW,337,12.0,16.0,98,0.01,,,0.03,6.900000,,2013-02-27 04:21:00,
2013-02-26 19:52:00,34.0,30.0,-100.00,NNW,336,11.0,19.0,85,0.02,,,0.05,0.900000,,2013-02-27 04:52:00,
2013-02-26 20:01:00,34.0,30.0,-100.00,NNW,336,11.0,19.0,85,0.02,,,0.05,0.900000,,2013-02-27 05:01:00,
2013-02-26 20:11:00,34.0,30.0,-100.00,NNW,336,11.0,19.0,85,0.02,,,0.05,0.900000,,2013-02-27 05:11:00,
2013-02-26 20:22:00,34.0,30.0,-100.00,NNW,336,11.0,19.0,85,0.02,,,0.05,0.900000,,2013-02-27 05:22:00,
2013-02-26 20:52:00,32.0,32.0,-100.00,North,358,7.0,20.0,98,0.00,,,0.05,0.800000,,2013-02-27 05:52:00,
2013-02-26 21:02:00,32.0,32.0,-100.00,North,358,7.0,20.0,98,0.00,,,0.05,0.800000,,2013-02-27 06:02:00,
2013-02-26 21:11:00,32.0,32.0,-100.00,North,358,7.0,20.0,98,0.00,,,0.05,0.800000,,2013-02-27 06:11:00,
2013-02-26 21:21:00,32.0,32.0,-100.00,North,358,7.0,20.0,98,0.00,,,0.05,0.800000,,2013-02-27 06:21:00,
2013-02-26 21:52:00,32.0,32.0,-100.00,NNW,345,7.0,14.0,99,0.00,,,0.05,0.800000,,2013-02-27 06:52:00,
2013-02-26 22:01:00,32.0,32.0,-100.00,NNW,345,7.0,14.0,99,0.00,,,0.05,0.800000,,2013-02-27 07:01:00,
2013-02-26 22:12:00,32.0,32.0,-100.00,NNW,345,7.0,14.0,99,0.00,,,0.05,0.800000,,2013-02-27 07:12:00,
2013-02-26 22:21:00,32.0,32.0,-100.00,NNW,345,7.0,14.0,99,0.00,,,0.05,0.800000,,2013-02-27 07:21:00,
2013-02-26 22:52:00,32.0,32.0,-100.00,North,351,11.0,13.0,98,0.00,,,0.05,0.800000,,2013-02-27 07:52:00,
2013-02-26 23:01:00,32.0,32.0,-100.00,North,351,11.0,13.0,98,0.00,,,0.05,0.800000,,2013-02-27 08:01:00,
2013-02-26 23:11:00,32.0,32.0,-100.00,North,351,11.0,13.0,98,0.00,,,0.05,0.800000,,2013-02-27 08:11:00,
2013-02-26 23:21:00,32.0,32.0,-100.00,North,351,11.0,13.0,98,0.00,,,0.05,0.800000,,2013-02-27 08:21:00,
2013-02-26 23:52:00,33.0,32.0,-100.00,NNW,339,8.0,15.0,99,0.00,,,0.04,0.800000,,2013-02-27 08:52:00,